Time;durP1;ratioP1;P1;durP2;ratioP2;P2;SDS_P1;SDS_P2;PMS_P1;PMS_P2;Temp;Humidity;BMP_temperature;BMP_pressure;BME280_temperature;BME280_humidity;BME280_pressure;Samples;Min_cycle;Max_cycle;Signal;HPM_P1;HPM_P2
2021/08/04 00:01:25;;;;;;;;;9.00;7.50;;;;;16.38;61.65;100599.16;5017278;28;69138;-59
2021/08/04 00:03:50;;;;;;;;;5.25;5.25;;;;;16.36;61.63;100603.81;5018203;28;45264;-60
2021/08/04 00:06:16;;;;;;;;;6.75;6.25;;;;;16.33;61.45;100604.16;5018452;28;45262;-60
2021/08/04 00:08:41;;;;;;;;;5.00;5.00;;;;;16.33;61.76;100612.09;5017246;28;45522;-60
2021/08/04 00:11:07;;;;;;;;;8.25;5.50;;;;;16.26;61.99;100617.25;5016949;28;73129;-60
2021/08/04 00:13:32;;;;;;;;;6.00;6.00;;;;;16.24;62.18;100619.25;5017869;28;54840;-60
2021/08/04 00:15:57;;;;;;;;;5.00;5.00;;;;;16.24;61.83;100618.44;5017748;28;56625;-60
2021/08/04 00:18:23;;;;;;;;;9.50;7.25;;;;;16.23;62.28;100616.78;5018034;28;47901;-60
2021/08/04 00:20:49;;;;;;;;;9.25;7.00;;;;;16.23;61.75;100614.13;5017102;28;72519;-60
2021/08/04 00:23:15;;;;;;;;;7.00;7.00;;;;;16.22;62.02;100620.44;5016868;28;45341;-60
2021/08/04 00:25:40;;;;;;;;;10.50;7.75;;;;;16.19;62.08;100616.28;5018162;28;45403;-61
2021/08/04 00:28:06;;;;;;;;;6.00;6.00;;;;;16.15;62.11;100615.81;5016908;28;70427;-61
2021/08/04 00:30:31;;;;;;;;;6.00;6.00;;;;;16.11;61.96;100617.16;5016090;28;58300;-59
2021/08/04 00:32:57;;;;;;;;;8.25;7.00;;;;;16.06;62.36;100610.72;5016934;28;70170;-60
2021/08/04 00:35:23;;;;;;;;;6.50;6.00;;;;;16.00;62.59;100607.75;5017864;28;45431;-61
2021/08/04 00:37:48;;;;;;;;;7.50;6.50;;;;;15.97;62.50;100612.53;5017915;28;45488;-59
2021/08/04 00:40:13;;;;;;;;;6.75;6.75;;;;;15.95;62.68;100603.94;5017716;28;46010;-60
2021/08/04 00:42:39;;;;;;;;;7.25;6.25;;;;;15.93;62.48;100605.91;5016748;28;68644;-60
2021/08/04 00:45:05;;;;;;;;;6.75;5.50;;;;;15.91;62.65;100603.47;5016783;28;65959;-60
2021/08/04 00:47:30;;;;;;;;;6.50;6.50;;;;;15.87;62.60;100602.97;5017821;28;45301;-60
2021/08/04 00:49:55;;;;;;;;;7.00;5.25;;;;;15.85;62.48;100601.44;5016349;28;75537;-60
2021/08/04 00:52:21;;;;;;;;;7.50;6.00;;;;;15.86;62.68;100592.50;5016920;28;60312;-60
2021/08/04 00:54:46;;;;;;;;;10.00;7.00;;;;;15.84;62.96;100592.69;5016852;28;61983;-60
2021/08/04 00:57:12;;;;;;;;;7.00;5.50;;;;;15.84;62.43;100591.84;5016715;28;63276;-61
2021/08/04 00:59:37;;;;;;;;;6.00;6.00;;;;;15.80;62.96;100587.88;5016370;28;67391;-59
2021/08/04 01:02:05;;;;;;;;;7.00;7.00;;;;;15.79;63.05;100595.00;5016281;28;72146;-60
2021/08/04 01:04:54;;;;;;;;;7.75;6.75;;;;;15.76;63.19;100592.69;5017533;28;45380;-59
2021/08/04 01:07:26;;;;;;;;;8.25;6.00;;;;;15.76;63.09;100591.84;5006789;28;45524;-60
2021/08/04 01:10:12;;;;;;;;;11.25;9.50;;;;;15.75;62.78;100588.41;5015814;28;45359;-60
2021/08/04 01:12:48;;;;;;;;;9.25;7.00;;;;;15.74;62.89;100589.41;5016009;28;45397;-60
2021/08/04 01:15:14;;;;;;;;;9.75;6.75;;;;;15.72;62.73;100578.13;5015492;28;45456;-60
2021/08/04 01:17:42;;;;;;;;;9.00;6.75;;;;;15.70;62.75;100580.94;5015909;28;45373;-59
2021/08/04 01:20:11;;;;;;;;;6.25;6.25;;;;;15.65;63.11;100582.44;5015825;28;46119;-61
2021/08/04 01:22:51;;;;;;;;;7.50;6.50;;;;;15.57;62.94;100578.81;5017126;28;45325;-60
2021/08/04 01:25:19;;;;;;;;;9.00;7.00;;;;;15.56;63.03;100576.34;5017246;28;45437;-60
2021/08/04 01:27:47;;;;;;;;;6.50;6.50;;;;;15.58;63.28;100572.53;5016004;28;45371;-60
2021/08/04 01:30:12;;;;;;;;;6.75;5.00;;;;;15.55;63.44;100567.56;4999370;28;45374;-59
2021/08/04 01:32:38;;;;;;;;;7.00;7.00;;;;;15.51;63.41;100574.19;5016818;28;45399;-60
2021/08/04 01:35:04;;;;;;;;;8.25;5.75;;;;;15.47;63.49;100578.16;5016088;28;69301;-60
2021/08/04 01:37:29;;;;;;;;;6.25;6.00;;;;;15.47;63.20;100575.53;5015418;28;50162;-60
2021/08/04 01:39:55;;;;;;;;;7.00;5.50;;;;;15.42;63.45;100572.53;5015583;28;46157;-59
2021/08/04 01:42:20;;;;;;;;;11.00;7.25;;;;;15.37;63.57;100574.84;5015583;28;45305;-60
2021/08/04 01:44:46;;;;;;;;;9.50;5.00;;;;;15.32;63.81;100575.38;4999322;28;45289;-60
2021/08/04 01:47:11;;;;;;;;;9.50;7.00;;;;;15.30;63.52;100573.91;5016918;28;45541;-59
2021/08/04 01:49:37;;;;;;;;;8.50;7.75;;;;;15.31;63.59;100570.25;4998866;28;46596;-60
2021/08/04 01:52:02;;;;;;;;;11.25;7.00;;;;;15.31;63.41;100567.59;5014360;28;73950;-61
2021/08/04 01:54:27;;;;;;;;;8.75;6.75;;;;;15.31;63.49;100570.25;5016781;28;45370;-60
2021/08/04 01:56:53;;;;;;;;;7.25;6.00;;;;;15.31;63.28;100565.78;5015693;28;67303;-60
2021/08/04 01:59:21;;;;;;;;;6.00;6.00;;;;;15.32;63.34;100563.97;5015842;28;58568;-60
2021/08/04 02:01:46;;;;;;;;;7.00;6.00;;;;;15.31;63.67;100567.59;5015364;28;45875;-59
2021/08/04 02:04:11;;;;;;;;;10.25;6.00;;;;;15.29;63.11;100567.75;5015688;28;66091;-61
2021/08/04 02:06:50;;;;;;;;;8.25;6.25;;;;;15.26;63.47;100563.63;5015477;28;69777;-60
2021/08/04 02:09:30;;;;;;;;;7.00;5.75;;;;;15.19;63.65;100567.94;4999412;28;46403;-60
2021/08/04 02:11:59;;;;;;;;;9.50;6.75;;;;;15.17;64.04;100555.84;4998578;28;49013;-60
2021/08/04 02:14:31;;;;;;;;;8.50;8.00;;;;;15.18;63.49;100554.84;5015306;28;45443;-60
2021/08/04 02:17:20;;;;;;;;;11.25;8.25;;;;;15.17;63.44;100556.69;5015385;28;45385;-60
2021/08/04 02:20:17;;;;;;;;;9.50;5.50;;;;;15.13;64.03;100552.72;4999271;28;52329;-60
2021/08/04 02:23:31;;;;;;;;;10.75;7.00;;;;;15.12;63.79;100551.06;5015809;28;45406;-60
2021/08/04 02:26:06;;;;;;;;;9.25;6.25;;;;;15.10;63.47;100543.28;5006629;28;45358;-60
2021/08/04 02:28:33;;;;;;;;;6.50;5.75;;;;;15.10;63.70;100548.56;5017039;28;45447;-60
2021/08/04 02:30:58;;;;;;;;;6.75;5.75;;;;;15.09;64.14;100546.94;5001779;28;47426;-60
2021/08/04 02:33:23;;;;;;;;;7.00;5.50;;;;;15.06;64.23;100541.13;5017687;28;68736;-60
2021/08/04 02:35:49;;;;;;;;;8.75;5.75;;;;;15.03;63.88;100546.75;5002017;28;45267;-59
2021/08/04 02:38:14;;;;;;;;;8.75;7.00;;;;;15.02;64.59;100539.81;5019555;28;45537;-59
2021/08/04 02:40:41;;;;;;;;;7.50;6.75;;;;;15.02;64.64;100540.66;5019495;28;49479;-60
2021/08/04 02:43:07;;;;;;;;;8.00;6.75;;;;;15.03;64.14;100547.59;5002154;28;45482;-60
2021/08/04 02:45:32;;;;;;;;;7.00;5.75;;;;;15.01;64.08;100532.88;5017646;28;58607;-60
2021/08/04 02:47:57;;;;;;;;;13.50;7.75;;;;;15.03;64.62;100539.66;5017398;28;70096;-60
2021/08/04 02:50:23;;;;;;;;;6.50;6.50;;;;;15.05;64.22;100532.38;5018683;28;63760;-61
2021/08/04 02:52:49;;;;;;;;;9.25;7.00;;;;;15.04;63.95;100524.59;5019395;28;45328;-60
2021/08/04 02:55:14;;;;;;;;;7.50;7.50;;;;;15.03;63.62;100533.53;5019469;28;45382;-59
2021/08/04 02:57:40;;;;;;;;;8.25;7.75;;;;;14.99;63.74;100536.50;5018469;28;45638;-60
2021/08/04 03:00:08;;;;;;;;;10.75;8.25;;;;;14.95;64.35;100529.88;5017293;28;75559;-60
2021/08/04 03:02:33;;;;;;;;;6.00;6.00;;;;;14.94;64.38;100525.59;5017989;28;49421;-60
2021/08/04 03:04:59;;;;;;;;;8.75;7.25;;;;;14.94;64.24;100530.88;5018239;28;45325;-60
2021/08/04 03:07:24;;;;;;;;;6.75;6.25;;;;;14.93;64.44;100526.56;5017417;28;69464;-61
2021/08/04 03:09:49;;;;;;;;;8.00;7.25;;;;;14.93;63.71;100525.75;5017043;28;75354;-60
2021/08/04 03:12:15;;;;;;;;;8.50;6.25;;;;;14.91;63.98;100523.25;5017862;28;49742;-60
2021/08/04 03:14:40;;;;;;;;;8.25;5.25;;;;;14.89;63.91;100513.84;5017571;28;64004;-60
2021/08/04 03:17:05;;;;;;;;;7.50;7.50;;;;;14.84;64.17;100522.25;5018125;28;45391;-60
2021/08/04 03:19:31;;;;;;;;;8.00;5.50;;;;;14.81;63.95;100525.28;5016538;28;47588;-60
2021/08/04 03:21:56;;;;;;;;;7.25;5.50;;;;;14.76;64.30;100524.94;5018099;28;45378;-60
2021/08/04 03:24:22;;;;;;;;;6.75;5.50;;;;;14.74;64.16;100532.19;5017248;28;61917;-59
2021/08/04 03:26:47;;;;;;;;;7.00;5.50;;;;;14.73;64.22;100533.19;5016903;28;70454;-60
2021/08/04 03:29:12;;;;;;;;;7.50;6.50;;;;;14.73;64.52;100530.53;5016779;28;46472;-60
2021/08/04 03:31:38;;;;;;;;;6.00;6.00;;;;;14.72;64.06;100536.81;5016765;28;68313;-60
2021/08/04 03:34:03;;;;;;;;;8.00;6.75;;;;;14.71;64.31;100529.88;5016948;28;67341;-60
2021/08/04 03:36:29;;;;;;;;;9.25;7.25;;;;;14.68;64.41;100526.53;5017776;28;45379;-60
2021/08/04 03:38:54;;;;;;;;;9.75;8.25;;;;;14.66;64.09;100517.94;5017127;28;46966;-60
2021/08/04 03:41:20;;;;;;;;;7.50;7.25;;;;;14.66;63.92;100514.47;5017690;28;45367;-60
2021/08/04 03:43:45;;;;;;;;;5.50;5.25;;;;;14.66;64.35;100515.31;5017704;28;45431;-61
2021/08/04 03:46:10;;;;;;;;;7.25;7.25;;;;;14.64;63.97;100508.50;5017209;28;56482;-60
2021/08/04 03:48:36;;;;;;;;;7.25;6.25;;;;;14.61;64.18;100504.38;5016538;28;74416;-59
2021/08/04 03:51:03;;;;;;;;;7.00;6.25;;;;;14.58;64.51;100512.63;5016331;28;72249;-60
2021/08/04 03:53:28;;;;;;;;;9.00;6.75;;;;;14.53;64.54;100505.22;5017608;28;45270;-60
2021/08/04 03:55:53;;;;;;;;;6.00;6.00;;;;;14.49;64.76;100503.03;5016565;28;63257;-60
2021/08/04 03:58:19;;;;;;;;;7.75;7.50;;;;;14.48;64.79;100504.03;5016140;28;75488;-60
2021/08/04 04:00:45;;;;;;;;;11.25;7.00;;;;;14.45;64.63;100507.00;4977908;28;1121953;-59
2021/08/04 04:03:11;;;;;;;;;5.00;4.75;;;;;14.43;64.97;100511.59;5018461;28;45380;-60
2021/08/04 04:05:36;;;;;;;;;8.75;6.25;;;;;14.44;64.80;100514.09;5018354;28;45424;-60
2021/08/04 04:08:02;;;;;;;;;5.50;5.50;;;;;14.42;65.07;100521.38;5017316;28;70335;-60
2021/08/04 04:10:27;;;;;;;;;8.75;6.75;;;;;14.41;64.99;100522.34;5016936;28;45349;-60
2021/08/04 04:12:52;;;;;;;;;7.25;6.75;;;;;14.42;64.73;100528.47;5017608;28;64847;-60
2021/08/04 04:15:18;;;;;;;;;8.50;7.00;;;;;14.43;64.89;100538.88;5017262;28;64815;-60
2021/08/04 04:17:43;;;;;;;;;9.00;8.75;;;;;14.42;64.96;100533.75;5017392;28;65782;-60
2021/08/04 04:20:09;;;;;;;;;6.75;5.00;;;;;14.42;65.12;100528.47;5017304;28;65909;-60
2021/08/04 04:22:34;;;;;;;;;8.25;7.00;;;;;14.40;64.82;100534.72;5018223;28;45301;-60
2021/08/04 04:24:59;;;;;;;;;7.50;7.00;;;;;14.41;64.81;100538.22;5017665;28;52793;-60
2021/08/04 04:27:25;;;;;;;;;10.25;7.75;;;;;14.40;64.30;100529.44;5016836;28;74979;-60
2021/08/04 04:29:50;;;;;;;;;7.50;7.50;;;;;14.39;64.91;100519.88;5016916;28;71488;-60
2021/08/04 04:32:15;;;;;;;;;8.00;7.00;;;;;14.40;64.43;100524.16;5017048;28;69170;-60
2021/08/04 04:34:41;;;;;;;;;6.50;6.50;;;;;14.40;64.73;100515.41;5017889;28;45201;-60
2021/08/04 04:37:06;;;;;;;;;7.00;5.25;;;;;14.37;64.77;100515.75;5017764;28;46220;-60
2021/08/04 04:39:32;;;;;;;;;8.75;6.50;;;;;14.34;64.26;100516.06;5017804;28;45317;-60
2021/08/04 04:41:58;;;;;;;;;8.00;7.75;;;;;14.29;64.71;100523.63;5018068;28;45277;-60
2021/08/04 04:44:23;;;;;;;;;6.00;5.00;;;;;14.25;65.12;100517.88;5017077;28;61661;-60
2021/08/04 04:46:48;;;;;;;;;6.75;6.25;;;;;14.23;64.64;100515.38;5016875;28;66044;-60
2021/08/04 04:49:14;;;;;;;;;9.00;9.00;;;;;14.23;65.34;100514.56;5017505;28;45268;-60
2021/08/04 04:51:39;;;;;;;;;9.25;6.75;;;;;14.21;64.78;100509.41;5015798;28;67714;-60
2021/08/04 04:54:04;;;;;;;;;11.00;8.00;;;;;14.19;65.47;100510.56;5016675;28;69429;-60
2021/08/04 04:56:30;;;;;;;;;6.75;6.75;;;;;14.20;65.68;100512.22;5017075;28;56179;-61
2021/08/04 04:58:55;;;;;;;;;6.75;6.75;;;;;14.19;65.41;100508.75;5016360;28;70853;-60
2021/08/04 05:01:21;;;;;;;;;9.50;7.00;;;;;14.20;65.97;100517.50;5016553;28;69410;-59
2021/08/04 05:03:46;;;;;;;;;8.50;7.00;;;;;14.22;65.50;100518.19;5017491;28;45352;-60
2021/08/04 05:06:12;;;;;;;;;6.75;6.00;;;;;14.26;65.62;100522.16;5016221;28;71692;-60
2021/08/04 05:08:37;;;;;;;;;7.50;7.50;;;;;14.30;65.77;100518.22;5015655;28;45374;-60
2021/08/04 05:11:03;;;;;;;;;10.25;8.00;;;;;14.34;65.88;100516.06;5017321;28;45816;-60
2021/08/04 05:13:28;;;;;;;;;8.00;7.00;;;;;14.39;65.54;100514.56;5017560;28;45490;-59
2021/08/04 05:15:54;;;;;;;;;8.00;7.00;;;;;14.47;65.40;100529.66;5017240;28;45911;-60
2021/08/04 05:18:19;;;;;;;;;11.00;6.25;;;;;14.51;65.45;100530.97;5016257;28;67710;-60
2021/08/04 05:20:44;;;;;;;;;9.75;7.00;;;;;14.59;65.38;100524.88;5016294;28;69142;-60
2021/08/04 05:23:10;;;;;;;;;16.25;9.00;;;;;14.64;65.78;100530.50;5016288;28;69494;-60
2021/08/04 05:25:36;;;;;;;;;8.25;8.25;;;;;14.66;65.47;100525.88;5016669;28;52115;-59
2021/08/04 05:28:01;;;;;;;;;10.00;8.25;;;;;14.74;65.21;100540.94;5015828;28;45408;-60
2021/08/04 05:30:27;;;;;;;;;7.75;6.75;;;;;14.76;65.27;100535.50;5015957;28;68210;-60
2021/08/04 05:32:52;;;;;;;;;8.50;7.50;;;;;14.80;64.96;100536.84;5016255;28;63703;-60
2021/08/04 05:35:17;;;;;;;;;8.75;7.00;;;;;14.84;65.06;100530.19;5016872;28;45912;-59
2021/08/04 05:37:43;;;;;;;;;8.00;6.25;;;;;14.87;65.15;100537.81;4998310;28;66775;-60
2021/08/04 05:40:09;;;;;;;;;8.00;7.00;;;;;14.91;65.31;100541.78;5016786;28;45189;-60
2021/08/04 05:42:34;;;;;;;;;8.75;7.00;;;;;14.95;65.36;100544.94;5016760;28;45154;-60
2021/08/04 05:44:59;;;;;;;;;8.75;7.25;;;;;14.96;65.16;100539.47;5015949;28;67272;-60
2021/08/04 05:47:25;;;;;;;;;9.50;8.50;;;;;15.01;64.95;100548.75;5016640;28;45277;-60
2021/08/04 05:49:50;;;;;;;;;7.00;6.25;;;;;15.02;65.22;100550.41;5015752;28;68311;-59
2021/08/04 05:52:15;;;;;;;;;8.25;6.75;;;;;15.03;65.02;100546.75;5016359;28;54446;-60
2021/08/04 05:54:41;;;;;;;;;7.25;7.25;;;;;15.06;64.70;100541.13;5015812;28;63937;-59
2021/08/04 05:57:07;;;;;;;;;7.75;6.25;;;;;15.11;64.36;100544.13;5015718;28;67197;-60
2021/08/04 05:59:32;;;;;;;;;9.75;8.00;;;;;15.16;64.90;100544.44;5016380;28;45319;-60
2021/08/04 06:01:57;;;;;;;;;10.25;9.75;;;;;15.22;64.80;100553.53;5015926;28;47029;-60
2021/08/04 06:04:23;;;;;;;;;13.75;9.00;;;;;15.28;64.42;100552.88;5016090;28;46039;-60
2021/08/04 06:06:48;;;;;;;;;10.50;8.25;;;;;15.35;64.59;100553.84;5016004;28;46186;-60
2021/08/04 06:09:14;;;;;;;;;12.25;10.75;;;;;15.42;64.67;100554.84;5015525;28;62268;-60
2021/08/04 06:11:39;;;;;;;;;9.00;8.00;;;;;15.50;64.15;100554.00;5016314;28;45571;-60
2021/08/04 06:14:04;;;;;;;;;5.00;1.75;;;;;15.56;64.65;100555.97;5015410;28;70988;-59
2021/08/04 06:16:30;;;;;;;;;9.75;7.00;;;;;15.62;64.31;100551.00;5015138;28;73211;-59
2021/08/04 06:18:56;;;;;;;;;8.50;6.00;;;;;15.65;64.27;100551.47;5015224;28;69196;-60
2021/08/04 06:21:21;;;;;;;;;8.25;7.50;;;;;15.72;63.86;100549.00;5016338;28;45407;-60
2021/08/04 06:23:48;;;;;;;;;10.50;7.25;;;;;15.79;63.32;100549.97;5015942;28;45703;-60
2021/08/04 06:26:16;;;;;;;;;9.75;7.00;;;;;15.91;63.59;100552.28;5016242;28;45292;-60
2021/08/04 06:28:42;;;;;;;;;8.25;8.25;;;;;16.01;63.21;100540.50;5016162;28;45338;-59
2021/08/04 06:31:08;;;;;;;;;8.75;6.25;;;;;16.14;63.19;100539.94;5016007;28;45536;-60
2021/08/04 06:33:33;;;;;;;;;7.75;6.25;;;;;16.29;62.62;100536.56;5014983;28;75563;-61
2021/08/04 06:35:58;;;;;;;;;8.25;7.50;;;;;16.41;61.93;100540.47;5015133;28;71439;-61
2021/08/04 06:38:24;;;;;;;;;7.50;6.75;;;;;16.46;61.50;100532.78;5015243;28;60517;-61
2021/08/04 06:40:49;;;;;;;;;9.50;6.75;;;;;16.52;61.60;100525.97;5015040;28;68718;-61
2021/08/04 06:43:15;;;;;;;;;9.25;7.75;;;;;16.60;61.63;100531.25;5014672;28;74582;-60
2021/08/04 06:45:41;;;;;;;;;8.00;7.25;;;;;16.71;61.47;100534.47;5015962;28;45160;-61
2021/08/04 06:48:10;;;;;;;;;8.50;7.00;;;;;16.83;61.21;100532.25;5015546;28;61372;-60
2021/08/04 06:50:36;;;;;;;;;7.50;6.25;;;;;16.95;60.84;100533.47;5015907;28;45606;-61
2021/08/04 06:53:01;;;;;;;;;11.00;8.00;;;;;17.08;60.83;100535.56;5015894;28;45507;-60
2021/08/04 06:55:26;;;;;;;;;10.50;7.75;;;;;17.24;60.21;100539.06;5015067;28;66507;-61
2021/08/04 06:57:52;;;;;;;;;7.00;7.00;;;;;17.37;59.97;100538.44;5015263;28;61865;-61
2021/08/04 07:00:17;;;;;;;;;11.50;7.75;;;;;17.49;59.57;100536.97;5014771;28;66771;-61
2021/08/04 07:02:43;;;;;;;;;9.25;8.25;;;;;17.59;59.11;100534.88;5014996;28;63609;-60
2021/08/04 07:05:08;;;;;;;;;8.00;7.00;;;;;17.68;59.16;100537.47;5015427;28;45450;-61
2021/08/04 07:07:34;;;;;;;;;9.00;7.25;;;;;17.74;59.00;100534.91;5015556;28;45361;-61
2021/08/04 07:09:59;;;;;;;;;8.75;8.00;;;;;17.85;58.81;100532.78;5014579;28;68613;-60
2021/08/04 07:12:24;;;;;;;;;8.50;8.50;;;;;17.92;58.65;100539.00;5014606;28;69593;-61
2021/08/04 07:14:51;;;;;;;;;8.50;8.50;;;;;18.02;58.71;100536.09;5016715;28;69123;-61
2021/08/04 07:17:16;;;;;;;;;9.00;7.75;;;;;18.15;58.44;100533.59;5019110;28;45444;-61
2021/08/04 07:19:42;;;;;;;;;9.00;9.00;;;;;18.28;58.31;100529.47;5018688;28;45269;-60
2021/08/04 07:22:07;;;;;;;;;10.50;9.25;;;;;18.39;57.82;100535.09;5018762;28;45229;-61
2021/08/04 07:24:33;;;;;;;;;11.25;9.00;;;;;18.48;57.89;100530.50;5017992;28;71740;-60
2021/08/04 07:26:58;;;;;;;;;8.00;7.00;;;;;18.61;57.16;100535.13;5018251;28;65690;-60
2021/08/04 07:29:23;;;;;;;;;10.00;8.00;;;;;18.77;56.86;100528.75;5017933;28;70190;-61
2021/08/04 07:31:49;;;;;;;;;8.25;8.25;;;;;18.92;56.67;100530.50;5018537;28;45308;-61
2021/08/04 07:34:17;;;;;;;;;8.75;7.75;;;;;19.07;56.04;100533.97;5018814;28;45353;-60
2021/08/04 07:39:26;;;;;;;;;7.50;5.50;;;;;19.37;54.69;100535.59;5018901;28;46017;-60
2021/08/04 07:41:52;;;;;;;;;7.25;7.00;;;;;19.50;54.36;100532.22;5017311;28;75540;-60
2021/08/04 07:44:17;;;;;;;;;5.50;5.00;;;;;19.58;53.54;100526.72;5018309;28;45478;-61
2021/08/04 07:46:42;;;;;;;;;7.25;6.00;;;;;19.65;53.40;100532.91;5018603;28;45647;-61
2021/08/04 07:49:08;;;;;;;;;6.50;6.00;;;;;19.72;53.24;100533.75;5017480;28;70461;-61
2021/08/04 07:51:33;;;;;;;;;6.00;5.25;;;;;19.83;52.97;100527.06;5016230;28;71171;-61
2021/08/04 07:53:58;;;;;;;;;5.50;5.50;;;;;19.95;52.83;100537.19;5017273;28;69654;-60
2021/08/04 07:56:24;;;;;;;;;5.00;4.25;;;;;20.05;52.43;100539.50;5017324;28;69319;-61
2021/08/04 07:58:50;;;;;;;;;6.00;5.00;;;;;20.16;52.02;100537.06;5017696;28;52692;-60
2021/08/04 08:01:16;;;;;;;;;7.25;6.75;;;;;20.28;51.67;100539.97;5018271;28;45390;-61
2021/08/04 08:03:41;;;;;;;;;7.25;5.50;;;;;20.40;52.00;100542.06;5018164;28;45367;-60
2021/08/04 08:06:06;;;;;;;;;6.00;6.00;;;;;20.54;51.31;100535.75;5018338;28;45961;-61
2021/08/04 08:08:32;;;;;;;;;8.50;6.75;;;;;20.71;50.75;100538.00;5018148;28;45484;-60
2021/08/04 08:10:57;;;;;;;;;9.25;6.25;;;;;20.86;51.09;100530.69;5017025;28;70694;-61
2021/08/04 08:13:22;;;;;;;;;6.50;6.50;;;;;21.04;50.92;100521.25;5017901;28;45296;-60
2021/08/04 08:15:48;;;;;;;;;7.75;6.00;;;;;21.23;50.11;100529.44;5018169;28;45548;-61
2021/08/04 08:18:14;;;;;;;;;6.00;6.00;;;;;21.36;49.19;100532.09;5016946;28;45242;-61
2021/08/04 08:20:40;;;;;;;;;6.25;5.75;;;;;21.46;48.03;100529.00;5016857;28;71275;-61
2021/08/04 08:23:06;;;;;;;;;5.75;5.00;;;;;21.56;47.70;100533.91;5017836;28;45761;-61
2021/08/04 08:25:31;;;;;;;;;4.75;4.50;;;;;21.64;48.24;100531.06;5016928;28;45386;-61
2021/08/04 08:27:56;;;;;;;;;5.00;4.00;;;;;21.73;46.55;100536.97;5017630;28;45245;-60
2021/08/04 08:30:22;;;;;;;;;6.00;6.00;;;;;21.83;46.93;100525.84;5016722;28;75653;-61
2021/08/04 08:32:48;;;;;;;;;5.50;5.50;;;;;21.93;46.70;100529.72;5016819;28;69247;-61
2021/08/04 08:35:15;;;;;;;;;6.00;5.25;;;;;22.04;45.80;100530.06;5017911;28;45301;-61
2021/08/04 08:37:40;;;;;;;;;5.50;5.00;;;;;22.15;45.81;100518.72;5017552;28;45546;-61
2021/08/04 08:40:06;;;;;;;;;7.00;5.00;;;;;22.25;45.52;100523.63;5016598;28;74558;-61
2021/08/04 08:42:31;;;;;;;;;5.25;5.00;;;;;22.37;44.93;100524.56;5017618;28;46055;-61
2021/08/04 08:44:57;;;;;;;;;5.25;5.25;;;;;22.51;45.24;100514.63;5017111;28;56333;-60
2021/08/04 08:47:23;;;;;;;;;10.50;10.50;;;;;22.67;44.97;100520.50;5017401;28;45320;-60
2021/08/04 08:49:49;;;;;;;;;8.25;6.50;;;;;22.82;44.39;100526.34;5016418;28;71964;-61
2021/08/04 08:52:15;;;;;;;;;6.00;6.00;;;;;22.95;44.08;100522.75;5016367;28;45912;-61
2021/08/04 08:54:40;;;;;;;;;5.25;4.50;;;;;23.08;42.70;100524.47;5017636;28;45701;-60
2021/08/04 08:57:05;;;;;;;;;6.50;4.00;;;;;23.23;42.20;100521.50;5015436;28;69819;-60
2021/08/04 08:59:31;;;;;;;;;4.50;4.50;;;;;23.39;42.07;100521.97;5017113;28;45450;-60
2021/08/04 09:01:56;;;;;;;;;7.75;4.75;;;;;23.54;42.25;100517.06;5017310;28;45338;-60
2021/08/04 09:04:22;;;;;;;;;5.00;5.00;;;;;23.66;41.64;100517.13;5017064;28;50476;-61
2021/08/04 09:06:57;;;;;;;;;5.00;5.00;;;;;23.78;41.52;100522.59;5017202;28;46020;-60
2021/08/04 09:09:32;;;;;;;;;6.50;6.00;;;;;23.86;40.54;100527.63;5017229;28;45427;-60
2021/08/04 09:12:18;;;;;;;;;7.00;5.25;;;;;23.96;41.09;100532.47;5016659;28;45347;-60
2021/08/04 09:14:43;;;;;;;;;4.75;4.75;;;;;24.11;40.91;100526.75;5016159;28;65536;-61
2021/08/04 09:17:10;;;;;;;;;4.00;4.00;;;;;24.26;39.69;100526.34;5017328;28;45240;-61
2021/08/04 09:19:37;;;;;;;;;6.75;6.00;;;;;24.37;39.55;100529.28;5015660;28;45306;-61
2021/08/04 09:22:14;;;;;;;;;3.50;3.50;;;;;24.50;38.26;100528.28;5017013;28;45778;-61
2021/08/04 09:24:58;;;;;;;;;4.00;4.00;;;;;24.53;39.28;100525.13;5017303;28;45268;-60
2021/08/04 09:27:48;;;;;;;;;5.00;4.00;;;;;24.52;39.72;100527.00;5016861;28;45423;-61
2021/08/04 09:30:29;;;;;;;;;4.75;4.75;;;;;24.45;38.78;100516.34;5016895;28;45320;-61
2021/08/04 09:33:17;;;;;;;;;5.25;3.25;;;;;24.41;39.06;100519.72;5016833;28;45239;-61
2021/08/04 09:35:50;;;;;;;;;5.00;5.00;;;;;24.47;39.24;100518.00;5007689;28;45478;-61
2021/08/04 09:38:16;;;;;;;;;3.00;3.00;;;;;24.54;39.58;100510.66;5016289;28;45470;-61
2021/08/04 09:40:41;;;;;;;;;5.75;5.75;;;;;24.59;39.29;100513.47;5016596;28;45999;-61
2021/08/04 09:43:07;;;;;;;;;8.00;7.00;;;;;24.60;39.05;100512.44;5016794;28;45374;-61
2021/08/04 09:45:47;;;;;;;;;6.75;5.00;;;;;24.51;39.78;100513.81;5015706;28;69360;-61
2021/08/04 09:48:15;;;;;;;;;4.00;4.00;;;;;24.48;39.29;100514.25;5016958;28;45394;-61
2021/08/04 09:50:46;;;;;;;;;8.50;5.25;;;;;24.47;39.86;100518.00;5016033;28;45418;-61
2021/08/04 09:53:20;;;;;;;;;6.00;5.00;;;;;24.50;40.10;100517.53;5016444;28;45677;-61
2021/08/04 09:56:14;;;;;;;;;6.00;5.00;;;;;24.54;40.01;100506.13;5016914;28;45398;-60
2021/08/04 09:58:46;;;;;;;;;5.75;4.25;;;;;24.62;39.55;100510.31;5016422;28;45352;-60
2021/08/04 10:01:14;;;;;;;;;4.75;4.25;;;;;24.63;39.64;100493.16;5016178;28;45410;-60
2021/08/04 10:04:06;;;;;;;;;5.00;5.00;;;;;24.69;39.53;100494.94;5016577;28;45904;-61
2021/08/04 10:06:32;;;;;;;;;5.25;5.00;;;;;24.77;38.65;100492.97;5015896;28;45385;-61
2021/08/04 10:09:00;;;;;;;;;6.00;5.00;;;;;24.80;38.92;100490.63;5015981;28;45279;-60
2021/08/04 10:11:25;;;;;;;;;6.25;6.00;;;;;24.88;39.29;100492.19;5016065;28;45415;-61
2021/08/04 10:13:51;;;;;;;;;8.00;4.75;;;;;24.99;39.43;100493.22;5016312;28;45405;-61
2021/08/04 10:16:17;;;;;;;;;7.00;6.00;;;;;25.10;39.52;100489.72;5016470;28;45179;-61
2021/08/04 10:18:42;;;;;;;;;7.00;7.00;;;;;25.25;39.05;100494.63;5016425;28;45162;-61
2021/08/04 10:21:11;;;;;;;;;3.75;3.00;;;;;25.36;38.68;100497.53;5016038;28;56403;-61
2021/08/04 10:23:37;;;;;;;;;5.25;4.50;;;;;25.41;38.27;100489.59;5016292;28;45453;-61
2021/08/04 10:26:03;;;;;;;;;7.00;5.00;;;;;25.42;38.25;100486.66;5016241;28;45438;-61
2021/08/04 10:28:28;;;;;;;;;4.00;4.00;;;;;25.41;38.93;100484.22;5014160;28;65287;-61
2021/08/04 10:30:54;;;;;;;;;7.25;5.00;;;;;25.37;38.52;100488.44;5015834;28;46140;-61
2021/08/04 10:33:19;;;;;;;;;4.00;4.00;;;;;25.30;38.55;100488.53;5016059;28;45363;-61
2021/08/04 10:35:48;;;;;;;;;7.00;7.00;;;;;25.23;38.18;100482.44;5014032;28;66711;-60
2021/08/04 10:38:19;;;;;;;;;4.50;4.50;;;;;25.13;37.89;100485.75;5015717;28;45351;-61
2021/08/04 10:40:44;;;;;;;;;7.25;6.25;;;;;25.09;37.80;100476.50;5014672;28;47342;-61
2021/08/04 10:43:10;;;;;;;;;4.00;4.00;;;;;24.95;38.10;100474.03;5016075;28;45330;-61
2021/08/04 10:45:35;;;;;;;;;4.75;4.25;;;;;24.82;38.59;100469.72;5014697;28;45393;-61
2021/08/04 10:48:27;;;;;;;;;3.75;3.75;;;;;24.69;38.51;100472.59;5016138;28;45246;-61
2021/08/04 10:51:13;;;;;;;;;7.00;4.50;;;;;24.57;38.64;100465.38;5016547;28;45364;-61
2021/08/04 10:53:59;;;;;;;;;5.00;5.00;;;;;24.50;38.93;100474.56;5019346;28;45802;-61
2021/08/04 10:56:25;;;;;;;;;5.25;5.00;;;;;24.43;38.76;100475.47;5019315;28;45357;-60
2021/08/04 10:59:19;;;;;;;;;8.00;5.00;;;;;24.37;38.29;100480.97;5018923;28;51246;-61
2021/08/04 11:01:46;;;;;;;;;5.25;4.00;;;;;24.31;38.92;100482.72;5017210;28;46204;-61
2021/08/04 11:04:12;;;;;;;;;5.00;5.00;;;;;24.31;38.96;100485.41;5019272;28;45794;-59
2021/08/04 11:07:09;;;;;;;;;6.00;6.00;;;;;24.31;38.68;100480.03;5019221;28;45391;-60
2021/08/04 11:09:34;;;;;;;;;4.75;4.25;;;;;24.29;37.90;100480.25;5019175;28;45232;-60
2021/08/04 11:12:02;;;;;;;;;6.00;3.00;;;;;24.22;37.78;100484.88;5018944;28;46128;-62
2021/08/04 11:14:50;;;;;;;;;6.75;5.75;;;;;24.18;38.20;100482.88;5019032;28;45339;-61
2021/08/04 11:17:22;;;;;;;;;4.25;4.25;;;;;24.17;38.53;100483.94;5018125;28;45423;-62
2021/08/04 11:20:02;;;;;;;;;7.25;5.00;;;;;24.17;38.14;100478.56;5018986;28;45570;-61
2021/08/04 11:22:53;;;;;;;;;5.75;4.00;;;;;24.11;38.78;100478.44;5018676;28;45441;-60
2021/08/04 11:25:22;;;;;;;;;5.75;5.75;;;;;24.04;38.59;100484.94;5018937;28;45802;-61
2021/08/04 11:27:47;;;;;;;;;5.00;4.75;;;;;23.98;39.26;100487.50;5019023;28;46801;-62
2021/08/04 11:30:14;;;;;;;;;4.00;4.00;;;;;23.93;39.22;100483.78;5017682;28;45530;-61